Photo de Laille
Rennes
quelques nuages
Metar : 2017/11/20 11:00 LFRN 201100Z AUTO 22008KT 190V250 9999 FEW022 12/10 Q1023 TEMPO 3000 BR BKN005
Couverture nuageuse : Few Clouds 2200 ft
Pression de 30.21 inHg (1023 hPa)
Humidité : 88%
Température : 54°F (12°C)
Vent de SW at 9 mph (15 km/h)
Visibilité : 6 miles (10 km)
Nantes
couvert
Metar : 2017/11/20 11:00 LFRS 201100Z AUTO 17006KT 8000 BKN003 BKN018 OVC023 09/09 Q1024 BECMG BKN016
Couverture nuageuse : Mostly Cloudy 300 ft Mostly Cloudy 1800 ft Overcast 2300 ft
Traduc : Partly cloudy 700 ft
Pression de 30.24 inHg (1024 hPa)
Humidité : 100%
Température : 48°F (9°C)
Point de rosée : 48°F (9°C)
Vent de S at 7 mph (11 km/h)
Visibilité : 5 miles (8 km)
Lannion
quelques nuages
Metar : 2017/11/20 11:00 LFRO 201100Z AUTO 19009KT 9999 FEW012 12/09 Q1022 NOSIG
Couverture nuageuse : Few Clouds 1200 ft
Traduc : Partly cloudy 700 ft
Pression de 30.18 inHg (1022 hPa)
Humidité : 82%
Température : 54°F (12°C)
Point de rosée : 48°F (9°C)
Vent de S at 10 mph (17 km/h)
Visibilité : 6 miles (10 km)
Dinard
Ciel dégagé
Metar : 2017/11/20 11:00 LFRD 201100Z AUTO 21009KT 180V240 CAVOK 11/09 Q1022 NOSIG
Couverture nuageuse :
Traduc : Partly cloudy 700 ft
Pression de 30.18 inHg (1022 hPa)
Humidité : 88%
Température : 52°F (11°C)
Point de rosée : 48°F (9°C)
Vent de SSW at 10 mph (17 km/h)
Visibilité : greater than 7 miles (10 km)
Brest
nuageux
Metar : 2017/11/20 11:00 LFRB 201100Z AUTO 21013KT 9999 BKN014 13/10 Q1022 BECMG BKN020
Couverture nuageuse : Mostly Cloudy 1400 ft
Traduc : Partly cloudy 700 ft
Pression de 30.18 inHg (1022 hPa)
Humidité : 82%
Température : 55°F (13°C)
Point de rosée : 50°F (10°C)
Vent de SSW at 15 mph (24 km/h)
Visibilité : 6 miles (10 km)
Quimper
couvert
Metar : 2017/11/20 11:00 LFRQ 201100Z AUTO 20006KT 9999 OVC014 12/10 Q1023 BECMG OVC016
Couverture nuageuse : Overcast 1400 ft
Traduc : Partly cloudy 700 ft
Pression de 30.21 inHg (1023 hPa)
Humidité : 88%
Température : 54°F (12°C)
Point de rosée : 50°F (10°C)
Vent de SSW at 7 mph (11 km/h)
Visibilité : 6 miles (10 km)
St Nazaire
couvert
Metar : 2017/11/20 11:00 LFRZ 201100Z AUTO 17006KT 9999 OVC024 13/11 Q1024 NOSIG
Couverture nuageuse : Overcast 2400 ft
Traduc : Partly cloudy 700 ft
Pression de 30.24 inHg (1024 hPa)
Humidité : 88%
Température : 55°F (13°C)
Point de rosée : 52°F (11°C)
Vent de S at 7 mph (11 km/h)
Visibilité : 6 miles (10 km)
St Brieuc
Ciel dégagé
Metar : 2017/11/20 11:00 LFRT 201100Z AUTO 25010KT 190V280 CAVOK 11/09 Q1021
Couverture nuageuse :
Traduc : Partly cloudy 700 ft
Pression de 30.15 inHg (1021 hPa)
Humidité : 88%
Température : 52°F (11°C)
Point de rosée : 48°F (9°C)
Vent de WSW at 12 mph (19 km/h)
Visibilité : greater than 7 miles (10 km)
Lorient
couvert
Metar : 2017/11/20 11:00 LFRH 201100Z AUTO 21006KT 9999 OVC017 13/10 Q1023 NOSIG
Couverture nuageuse : Overcast 1700 ft
Traduc : Partly cloudy 700 ft
Pression de 30.21 inHg (1023 hPa)
Humidité : 82%
Température : 55°F (13°C)
Point de rosée : 50°F (10°C)
Vent de SSW at 7 mph (11 km/h)
Visibilité : 6 miles (10 km)
Vannes-Meucon
couvert
Metar : 2017/11/20 11:00 LFRV 201100Z AUTO 21007KT 9999 OVC016 12/10 Q1023
Couverture nuageuse : Overcast 1600 ft
Traduc : Partly cloudy 700 ft
Pression de 30.21 inHg (1023 hPa)
Humidité : 88%
Température : 54°F (12°C)
Point de rosée : 50°F (10°C)
Vent de SSW at 8 mph (13 km/h)
Visibilité : 6 miles (10 km)

 


   Weather Underground PWS IBRETAGN39      Weather Underground PWS IBRETAGN39Retour Météo-Laillé adhérent de Météo-Bretagne et d'Infoclimat. Données mises à jour en temps réel via Météolink Climatologie réalisée sous Wswin et GraphWeather.

Affichage prévisions météo de WeatherUnderground via script PHP de Saratoga.

Copyright 2012-2017